VOE84AN LEAS-LPPR
Flight info
| Callsign | VOE84AN |
|---|---|
| Flight time | 0h 42m |
| Altitude | 23000 |
| Route | KUVAN N872 RALUS DCT BELDU DCT INKIT |
| Aircraft | A319/M-SDE3FGHIRWY/LB1 |
Departure
| Time | 2026-05-01 09:56 |
|---|---|
| Airport | Asturias Airport (LEAS) |
Arrival
| Time | 2026-05-01 10:39 |
|---|---|
| Airport | Francisco de Sá Carneiro Airport (LPPR) |
| Time | Latitude | Longitude | Altitude | Speed | Heading |
|---|---|---|---|---|---|
| 2026-05-01 08:43 | 43.56022 | -6.03347 | 413 ft | 0 kts | 198° |
| 2026-05-01 09:48 | 43.56021 | -6.03348 | 421 ft | 0 kts | 208° |
| 2026-05-01 09:48 | 43.56032 | -6.03369 | 417 ft | 3 kts | 330° |
| 2026-05-01 09:48 | 43.56057 | -6.03371 | 419 ft | 4 kts | 14° |
| 2026-05-01 09:48 | 43.56081 | -6.03344 | 413 ft | 4 kts | 61° |
| 2026-05-01 09:49 | 43.56074 | -6.03300 | 417 ft | 5 kts | 110° |
| 2026-05-01 09:49 | 43.56078 | -6.03249 | 421 ft | 6 kts | 60° |
| 2026-05-01 09:49 | 43.56112 | -6.03217 | 418 ft | 6 kts | 31° |
| 2026-05-01 09:49 | 43.56125 | -6.03162 | 416 ft | 7 kts | 102° |
| 2026-05-01 09:50 | 43.56108 | -6.03099 | 416 ft | 7 kts | 110° |
| 2026-05-01 09:50 | 43.56089 | -6.03027 | 417 ft | 8 kts | 109° |
| 2026-05-01 09:50 | 43.56069 | -6.02946 | 420 ft | 9 kts | 108° |
| 2026-05-01 09:50 | 43.56047 | -6.02856 | 414 ft | 10 kts | 108° |
| 2026-05-01 09:51 | 43.56024 | -6.02759 | 421 ft | 11 kts | 107° |
| 2026-05-01 09:51 | 43.55999 | -6.02651 | 418 ft | 12 kts | 108° |
| 2026-05-01 09:51 | 43.55971 | -6.02537 | 418 ft | 13 kts | 108° |
| 2026-05-01 09:51 | 43.55946 | -6.02416 | 418 ft | 12 kts | 99° |
| 2026-05-01 09:52 | 43.55964 | -6.02315 | 421 ft | 6 kts | 63° |
| 2026-05-01 09:52 | 43.55974 | -6.02287 | 416 ft | 0 kts | 63° |
| 2026-05-01 09:54 | 43.55976 | -6.02282 | 417 ft | 1 kts | 63° |
| 2026-05-01 09:55 | 43.55982 | -6.02265 | 421 ft | 4 kts | 63° |
| 2026-05-01 09:55 | 43.56006 | -6.02222 | 410 ft | 7 kts | 41° |
| 2026-05-01 09:55 | 43.56054 | -6.02219 | 421 ft | 8 kts | 322° |
| 2026-05-01 09:55 | 43.56065 | -6.02244 | 409 ft | 1 kts | 290° |
| 2026-05-01 09:56 | 43.56128 | -6.02527 | 417 ft | 72 kts | 289° |
| 2026-05-01 09:56 | 43.56368 | -6.03508 | 422 ft | 142 kts | 288° |
| 2026-05-01 09:56 | 43.56708 | -6.04847 | 935 ft | 149 kts | 291° |
| 2026-05-01 09:56 | 43.57081 | -6.06236 | 1512 ft | 160 kts | 290° |
| 2026-05-01 09:57 | 43.57435 | -6.07712 | 2114 ft | 168 kts | 288° |
| 2026-05-01 09:57 | 43.57779 | -6.09310 | 2696 ft | 181 kts | 286° |
| 2026-05-01 09:57 | 43.58153 | -6.11078 | 3135 ft | 203 kts | 286° |
| 2026-05-01 09:57 | 43.58580 | -6.13083 | 3591 ft | 226 kts | 286° |
| 2026-05-01 09:58 | 43.59046 | -6.15148 | 4641 ft | 224 kts | 287° |
| 2026-05-01 09:58 | 43.59235 | -6.17299 | 5472 ft | 229 kts | 257° |
| 2026-05-01 09:58 | 43.58505 | -6.19172 | 6394 ft | 227 kts | 221° |
| 2026-05-01 09:58 | 43.57113 | -6.20248 | 7219 ft | 230 kts | 197° |
| 2026-05-01 09:59 | 43.55553 | -6.20764 | 8124 ft | 234 kts | 189° |
| 2026-05-01 09:59 | 43.53968 | -6.21131 | 9193 ft | 229 kts | 188° |
| 2026-05-01 09:59 | 43.52394 | -6.21499 | 10164 ft | 230 kts | 190° |
| 2026-05-01 09:59 | 43.50811 | -6.21970 | 10943 ft | 235 kts | 192° |
| 2026-05-01 10:00 | 43.49208 | -6.22513 | 11776 ft | 238 kts | 195° |
| 2026-05-01 10:00 | 43.47612 | -6.23179 | 12657 ft | 240 kts | 198° |
| 2026-05-01 10:00 | 43.45980 | -6.23711 | 13324 ft | 253 kts | 191° |
| 2026-05-01 10:00 | 43.44164 | -6.24163 | 13698 ft | 276 kts | 191° |
| 2026-05-01 10:01 | 43.42187 | -6.24634 | 14009 ft | 300 kts | 191° |
| 2026-05-01 10:01 | 43.40045 | -6.25131 | 14255 ft | 323 kts | 190° |
| 2026-05-01 10:01 | 43.37767 | -6.25652 | 14541 ft | 342 kts | 190° |
| 2026-05-01 10:01 | 43.35388 | -6.26191 | 15145 ft | 349 kts | 190° |
| 2026-05-01 10:02 | 43.32979 | -6.26736 | 15867 ft | 352 kts | 190° |
| 2026-05-01 10:02 | 43.30549 | -6.27284 | 16610 ft | 355 kts | 190° |
| 2026-05-01 10:02 | 43.28103 | -6.27836 | 17339 ft | 358 kts | 190° |
| 2026-05-01 10:02 | 43.25632 | -6.28394 | 18067 ft | 361 kts | 191° |
| 2026-05-01 10:03 | 43.23142 | -6.28958 | 18730 ft | 364 kts | 191° |
| 2026-05-01 10:03 | 43.20626 | -6.29530 | 19372 ft | 367 kts | 191° |
| 2026-05-01 10:03 | 43.18127 | -6.30100 | 19994 ft | 370 kts | 190° |
| 2026-05-01 10:03 | 43.15581 | -6.30678 | 20616 ft | 372 kts | 190° |
| 2026-05-01 10:04 | 43.13054 | -6.31255 | 21225 ft | 376 kts | 191° |
| 2026-05-01 10:04 | 43.10488 | -6.32236 | 21846 ft | 378 kts | 201° |
| 2026-05-01 10:04 | 43.08104 | -6.33801 | 22444 ft | 382 kts | 207° |
| 2026-05-01 10:04 | 43.05740 | -6.35494 | 22965 ft | 385 kts | 207° |
| 2026-05-01 10:05 | 43.03360 | -6.37188 | 23120 ft | 386 kts | 207° |
| 2026-05-01 10:05 | 43.00954 | -6.38895 | 23145 ft | 391 kts | 207° |
| 2026-05-01 10:05 | 42.98530 | -6.40607 | 23147 ft | 392 kts | 207° |
| 2026-05-01 10:05 | 42.96101 | -6.42318 | 23142 ft | 392 kts | 207° |
| 2026-05-01 10:06 | 42.93673 | -6.44025 | 23148 ft | 392 kts | 207° |
| 2026-05-01 10:06 | 42.91271 | -6.45710 | 23150 ft | 393 kts | 207° |
| 2026-05-01 10:06 | 42.88828 | -6.47423 | 23154 ft | 391 kts | 207° |
| 2026-05-01 10:06 | 42.86410 | -6.49124 | 23153 ft | 390 kts | 207° |
| 2026-05-01 10:07 | 42.84002 | -6.50816 | 23152 ft | 389 kts | 207° |
| 2026-05-01 10:07 | 42.81590 | -6.52509 | 23133 ft | 389 kts | 207° |
| 2026-05-01 10:07 | 42.79180 | -6.54200 | 23132 ft | 389 kts | 207° |
| 2026-05-01 10:07 | 42.76802 | -6.55854 | 23136 ft | 389 kts | 207° |
| 2026-05-01 10:08 | 42.71964 | -6.59173 | 23137 ft | 389 kts | 207° |
| 2026-05-01 10:08 | 42.69544 | -6.60825 | 23140 ft | 389 kts | 207° |
| 2026-05-01 10:08 | 42.67125 | -6.62480 | 23140 ft | 389 kts | 207° |
| 2026-05-01 10:09 | 42.64709 | -6.64139 | 23139 ft | 389 kts | 207° |
| 2026-05-01 10:09 | 42.62294 | -6.65797 | 23136 ft | 389 kts | 207° |
| 2026-05-01 10:09 | 42.59883 | -6.67447 | 23143 ft | 388 kts | 207° |
| 2026-05-01 10:09 | 42.57467 | -6.69092 | 23134 ft | 388 kts | 207° |
| 2026-05-01 10:10 | 42.55050 | -6.70735 | 23139 ft | 388 kts | 207° |
| 2026-05-01 10:10 | 42.52629 | -6.72378 | 23136 ft | 388 kts | 207° |
| 2026-05-01 10:10 | 42.47794 | -6.75672 | 23136 ft | 388 kts | 207° |
| 2026-05-01 10:11 | 42.45408 | -6.77298 | 23136 ft | 388 kts | 207° |
| 2026-05-01 10:11 | 42.42988 | -6.78945 | 23144 ft | 389 kts | 207° |
| 2026-05-01 10:11 | 42.40568 | -6.80588 | 23134 ft | 388 kts | 207° |
| 2026-05-01 10:11 | 42.38152 | -6.82228 | 23137 ft | 389 kts | 207° |
| 2026-05-01 10:12 | 42.35728 | -6.83871 | 23138 ft | 389 kts | 207° |
| 2026-05-01 10:12 | 42.34122 | -6.84959 | 23146 ft | 389 kts | 207° |
| 2026-05-01 10:12 | 42.28490 | -6.88774 | 23146 ft | 390 kts | 207° |
| 2026-05-01 10:13 | 42.26067 | -6.90412 | 23138 ft | 390 kts | 207° |
| 2026-05-01 10:13 | 42.23641 | -6.92045 | 23142 ft | 390 kts | 207° |
| 2026-05-01 10:13 | 42.21213 | -6.93677 | 23143 ft | 390 kts | 207° |
| 2026-05-01 10:14 | 42.16351 | -6.96911 | 23129 ft | 390 kts | 207° |
| 2026-05-01 10:14 | 42.13902 | -6.98505 | 23134 ft | 390 kts | 206° |
| 2026-05-01 10:14 | 42.11453 | -7.00092 | 23134 ft | 390 kts | 206° |
| 2026-05-01 10:14 | 42.09002 | -7.01679 | 23141 ft | 390 kts | 206° |
| 2026-05-01 10:15 | 42.06555 | -7.03266 | 23142 ft | 390 kts | 206° |
| 2026-05-01 10:15 | 42.04107 | -7.04856 | 23142 ft | 390 kts | 207° |
| 2026-05-01 10:15 | 42.01667 | -7.06442 | 23135 ft | 390 kts | 207° |
| 2026-05-01 10:15 | 41.99257 | -7.08006 | 23141 ft | 390 kts | 207° |
| 2026-05-01 10:16 | 41.96810 | -7.09597 | 23126 ft | 390 kts | 207° |
| 2026-05-01 10:16 | 41.94386 | -7.11244 | 23124 ft | 390 kts | 211° |
| 2026-05-01 10:16 | 41.90130 | -7.15730 | 23135 ft | 390 kts | 221° |
| 2026-05-01 10:17 | 41.88072 | -7.18112 | 23136 ft | 390 kts | 221° |
| 2026-05-01 10:17 | 41.83944 | -7.22868 | 23152 ft | 391 kts | 221° |
| 2026-05-01 10:17 | 41.81904 | -7.25215 | 23153 ft | 391 kts | 221° |
| 2026-05-01 10:18 | 41.77772 | -7.29970 | 23157 ft | 391 kts | 221° |
| 2026-05-01 10:18 | 41.75705 | -7.32342 | 23158 ft | 391 kts | 221° |
| 2026-05-01 10:18 | 41.73638 | -7.34712 | 23153 ft | 391 kts | 221° |
| 2026-05-01 10:19 | 41.71597 | -7.37054 | 23154 ft | 391 kts | 221° |
| 2026-05-01 10:19 | 41.69519 | -7.39440 | 23156 ft | 391 kts | 221° |
| 2026-05-01 10:19 | 41.67452 | -7.41810 | 23157 ft | 391 kts | 221° |
| 2026-05-01 10:20 | 41.63312 | -7.46546 | 23157 ft | 391 kts | 221° |
| 2026-05-01 10:20 | 41.61242 | -7.48910 | 23156 ft | 391 kts | 221° |
| 2026-05-01 10:20 | 41.59175 | -7.51269 | 23156 ft | 391 kts | 221° |
| 2026-05-01 10:20 | 41.57806 | -7.52829 | 23013 ft | 390 kts | 221° |
| 2026-05-01 10:21 | 41.55751 | -7.55168 | 22742 ft | 387 kts | 221° |
| 2026-05-01 10:21 | 41.51668 | -7.59814 | 22206 ft | 384 kts | 221° |
| 2026-05-01 10:21 | 41.49637 | -7.62124 | 21949 ft | 383 kts | 221° |
| 2026-05-01 10:22 | 41.45600 | -7.66708 | 21432 ft | 379 kts | 221° |
| 2026-05-01 10:22 | 41.41616 | -7.71215 | 20929 ft | 376 kts | 220° |
| 2026-05-01 10:23 | 41.39623 | -7.73467 | 20681 ft | 375 kts | 220° |
| 2026-05-01 10:23 | 41.35573 | -7.77788 | 20086 ft | 368 kts | 212° |
| 2026-05-01 10:23 | 41.33308 | -7.79368 | 19598 ft | 366 kts | 206° |
| 2026-05-01 10:24 | 41.28747 | -7.82261 | 18600 ft | 360 kts | 206° |
| 2026-05-01 10:24 | 41.24254 | -7.85119 | 17525 ft | 354 kts | 206° |
| 2026-05-01 10:25 | 41.19942 | -7.88142 | 16505 ft | 347 kts | 216° |
| 2026-05-01 10:25 | 41.16773 | -7.92834 | 15487 ft | 345 kts | 239° |
| 2026-05-01 10:26 | 41.15732 | -7.95704 | 14978 ft | 345 kts | 244° |
| 2026-05-01 10:26 | 41.14738 | -7.98593 | 14458 ft | 343 kts | 244° |
| 2026-05-01 10:26 | 41.12264 | -8.03987 | 13425 ft | 344 kts | 230° |
| 2026-05-01 10:27 | 41.09221 | -8.08855 | 12491 ft | 341 kts | 230° |
| 2026-05-01 10:27 | 41.06201 | -8.13646 | 11485 ft | 336 kts | 229° |
| 2026-05-01 10:28 | 41.04703 | -8.16017 | 11207 ft | 334 kts | 229° |
| 2026-05-01 10:28 | 41.01730 | -8.20724 | 11181 ft | 336 kts | 229° |
| 2026-05-01 10:28 | 41.00233 | -8.23094 | 11182 ft | 336 kts | 229° |
| 2026-05-01 10:29 | 40.97236 | -8.27847 | 11181 ft | 336 kts | 229° |
| 2026-05-01 10:29 | 40.95736 | -8.30222 | 11025 ft | 337 kts | 229° |
| 2026-05-01 10:30 | 40.92758 | -8.34919 | 10070 ft | 328 kts | 229° |
| 2026-05-01 10:30 | 40.89938 | -8.39380 | 9188 ft | 301 kts | 229° |
| 2026-05-01 10:31 | 40.87391 | -8.43444 | 8400 ft | 276 kts | 229° |
| 2026-05-01 10:31 | 40.85188 | -8.47527 | 7734 ft | 273 kts | 249° |
| 2026-05-01 10:32 | 40.85427 | -8.52465 | 7007 ft | 281 kts | 297° |
| 2026-05-01 10:32 | 40.86717 | -8.54397 | 6551 ft | 284 kts | 323° |
| 2026-05-01 10:32 | 40.90387 | -8.56273 | 5654 ft | 283 kts | 342° |
| 2026-05-01 10:33 | 40.94076 | -8.57893 | 4592 ft | 276 kts | 341° |
| 2026-05-01 10:33 | 40.97683 | -8.59494 | 3732 ft | 270 kts | 341° |
| 2026-05-01 10:34 | 40.99332 | -8.60226 | 3557 ft | 251 kts | 341° |
| 2026-05-01 10:34 | 41.00966 | -8.60951 | 3498 ft | 237 kts | 341° |
| 2026-05-01 10:34 | 41.02510 | -8.61636 | 3422 ft | 231 kts | 341° |
| 2026-05-01 10:35 | 41.05527 | -8.62975 | 3250 ft | 231 kts | 341° |
| 2026-05-01 10:35 | 41.07075 | -8.63491 | 3158 ft | 234 kts | 349° |
| 2026-05-01 10:35 | 41.08662 | -8.63902 | 3056 ft | 228 kts | 349° |
| 2026-05-01 10:35 | 41.10188 | -8.64297 | 2943 ft | 221 kts | 349° |
| 2026-05-01 10:36 | 41.13070 | -8.65070 | 2259 ft | 203 kts | 347° |
| 2026-05-01 10:36 | 41.14379 | -8.65392 | 2194 ft | 182 kts | 350° |
| 2026-05-01 10:36 | 41.15586 | -8.65674 | 1907 ft | 169 kts | 348° |
| 2026-05-01 10:37 | 41.16734 | -8.65950 | 1692 ft | 166 kts | 347° |
| 2026-05-01 10:37 | 41.18775 | -8.66529 | 1170 ft | 138 kts | 345° |
| 2026-05-01 10:37 | 41.19679 | -8.66782 | 990 ft | 131 kts | 346° |
| 2026-05-01 10:38 | 41.20569 | -8.67013 | 829 ft | 128 kts | 347° |
| 2026-05-01 10:38 | 41.21449 | -8.67241 | 666 ft | 127 kts | 347° |
| 2026-05-01 10:38 | 41.22321 | -8.67471 | 484 ft | 127 kts | 347° |
| 2026-05-01 10:38 | 41.23187 | -8.67702 | 314 ft | 126 kts | 347° |
| 2026-05-01 10:39 | 41.24012 | -8.67919 | 216 ft | 108 kts | 348° |
| 2026-05-01 10:39 | 41.24575 | -8.68067 | 210 ft | 59 kts | 348° |
| 2026-05-01 10:39 | 41.24894 | -8.68148 | 202 ft | 30 kts | 349° |
| 2026-05-01 10:39 | 41.25088 | -8.68184 | 194 ft | 29 kts | 3° |
| 2026-05-01 10:40 | 41.25258 | -8.68115 | 183 ft | 21 kts | 20° |
| 2026-05-01 10:40 | 41.25271 | -8.68021 | 183 ft | 13 kts | 150° |
| 2026-05-01 10:40 | 41.25194 | -8.67992 | 187 ft | 10 kts | 169° |
| 2026-05-01 10:40 | 41.25129 | -8.67975 | 189 ft | 9 kts | 170° |
| 2026-05-01 10:41 | 41.25074 | -8.67962 | 191 ft | 8 kts | 170° |
| 2026-05-01 10:41 | 41.24986 | -8.67941 | 201 ft | 14 kts | 169° |
| 2026-05-01 10:41 | 41.24823 | -8.67877 | 210 ft | 11 kts | 153° |
| 2026-05-01 10:42 | 41.24728 | -8.67825 | 208 ft | 19 kts | 171° |
| 2026-05-01 10:42 | 41.24606 | -8.67795 | 214 ft | 16 kts | 167° |
| 2026-05-01 10:42 | 41.24504 | -8.67757 | 219 ft | 14 kts | 165° |
| 2026-05-01 10:42 | 41.24417 | -8.67737 | 224 ft | 13 kts | 170° |
| 2026-05-01 10:43 | 41.24306 | -8.67690 | 230 ft | 17 kts | 145° |
| 2026-05-01 10:43 | 41.24234 | -8.67587 | 236 ft | 13 kts | 133° |
| 2026-05-01 10:43 | 41.24183 | -8.67506 | 240 ft | 10 kts | 137° |
| 2026-05-01 10:43 | 41.24131 | -8.67460 | 242 ft | 9 kts | 149° |
| 2026-05-01 10:44 | 41.24040 | -8.67420 | 242 ft | 17 kts | 171° |
| 2026-05-01 10:44 | 41.23931 | -8.67470 | 239 ft | 16 kts | 211° |
| 2026-05-01 10:44 | 41.23816 | -8.67473 | 237 ft | 18 kts | 167° |
| 2026-05-01 10:44 | 41.23719 | -8.67392 | 240 ft | 16 kts | 129° |
| 2026-05-01 10:45 | 41.23676 | -8.67327 | 242 ft | 8 kts | 92° |
| 2026-05-01 10:45 | 41.23684 | -8.67267 | 242 ft | 2 kts | 77° |
| 2026-05-01 10:45 | 41.23687 | -8.67248 | 242 ft | 0 kts | 79° |